Time;durP1;ratioP1;P1;durP2;ratioP2;P2;SDS_P1;SDS_P2;PMS_P1;PMS_P2;Temp;Humidity;BMP_temperature;BMP_pressure;BME280_temperature;BME280_humidity;BME280_pressure;Samples;Min_cycle;Max_cycle;Signal;HPM_P1;HPM_P2
2021/07/23 00:01:46;;;;;;;9.40;7.57;;;18.50;99.90;;;;;;4975238;28;20169;-71
2021/07/23 00:04:12;;;;;;;10.10;8.07;;;18.40;99.90;;;;;;4974727;28;20271;-71
2021/07/23 00:06:37;;;;;;;10.80;8.50;;;18.30;99.90;;;;;;4975239;28;20199;-71
2021/07/23 00:09:04;;;;;;;9.20;8.30;;;18.30;99.90;;;;;;4972451;28;20197;-70
2021/07/23 00:11:29;;;;;;;8.47;7.67;;;18.30;99.90;;;;;;4974254;28;20530;-71
2021/07/23 00:13:55;;;;;;;8.90;7.97;;;18.30;99.90;;;;;;4974455;28;20455;-71
2021/07/23 00:16:20;;;;;;;10.10;8.03;;;18.20;99.90;;;;;;4974266;28;20235;-70
2021/07/23 00:18:46;;;;;;;10.00;8.40;;;18.20;99.90;;;;;;4974769;28;20184;-70
2021/07/23 00:21:11;;;;;;;9.85;8.60;;;18.10;99.90;;;;;;4973744;28;20501;-69
2021/07/23 00:23:37;;;;;;;9.07;8.13;;;18.10;99.90;;;;;;4973976;28;20208;-69
2021/07/23 00:26:09;;;;;;;10.70;8.43;;;18.00;99.90;;;;;;4971489;28;20634;-68
2021/07/23 00:28:35;;;;;;;10.30;9.10;;;18.00;99.90;;;;;;4974936;28;20180;-69
2021/07/23 00:31:00;;;;;;;9.87;8.37;;;17.90;99.90;;;;;;4974581;28;20412;-69
2021/07/23 00:33:26;;;;;;;11.53;8.40;;;17.90;99.90;;;;;;4975463;28;20209;-69
2021/07/23 00:35:51;;;;;;;8.53;7.73;;;17.90;99.90;;;;;;4973020;28;20581;-71
2021/07/23 00:38:17;;;;;;;10.43;8.60;;;17.90;99.90;;;;;;4976914;28;20562;-71
2021/07/23 00:40:42;;;;;;;10.70;8.23;;;18.00;99.90;;;;;;4975890;28;20176;-70
2021/07/23 00:43:08;;;;;;;10.27;8.60;;;18.00;99.90;;;;;;4976540;28;20201;-70
2021/07/23 00:45:33;;;;;;;9.67;8.30;;;18.00;99.90;;;;;;4975907;28;20208;-69
2021/07/23 00:48:01;;;;;;;8.40;7.60;;;18.00;99.90;;;;;;4977211;28;20235;-69
2021/07/23 00:50:30;;;;;;;9.53;7.80;;;18.10;99.90;;;;;;4976730;28;20737;-69
2021/07/23 00:52:56;;;;;;;17.30;8.20;;;18.00;99.90;;;;;;4976027;28;20486;-70
2021/07/23 00:55:23;;;;;;;9.63;8.73;;;18.00;99.90;;;;;;4975298;28;20430;-70
2021/07/23 00:57:49;;;;;;;9.73;8.80;;;18.00;99.90;;;;;;4975164;28;20709;-69
2021/07/23 01:00:15;;;;;;;12.33;9.10;;;17.80;99.90;;;;;;4975311;28;20440;-70
2021/07/23 01:02:41;;;;;;;8.83;7.87;;;17.70;99.90;;;;;;4974631;28;20224;-69
2021/07/23 01:05:07;;;;;;;10.00;8.70;;;17.60;99.90;;;;;;4990919;28;20837;-70
2021/07/23 01:07:35;;;;;;;10.03;8.00;;;17.40;99.90;;;;;;5013759;28;20184;-69
2021/07/23 01:10:01;;;;;;;12.90;7.90;;;17.30;99.90;;;;;;5013719;28;20410;-69
2021/07/23 01:12:28;;;;;;;11.13;8.57;;;17.30;99.90;;;;;;5013184;28;20438;-70
2021/07/23 01:14:54;;;;;;;10.23;9.17;;;17.20;99.90;;;;;;5012963;28;20454;-69
2021/07/23 01:17:20;;;;;;;9.50;8.50;;;17.10;99.90;;;;;;5013201;28;20493;-69
2021/07/23 01:20:05;;;;;;;9.40;8.50;;;17.10;99.90;;;;;;5013787;28;20408;-69
2021/07/23 01:22:31;;;;;;;10.50;8.70;;;17.10;99.90;;;;;;5016751;28;20192;-69
2021/07/23 01:24:57;;;;;;;12.63;7.80;;;17.00;99.90;;;;;;5016209;28;20434;-70
2021/07/23 01:27:26;;;;;;;9.50;8.10;;;17.00;99.90;;;;;;5016602;28;20406;-69
2021/07/23 01:29:51;;;;;;;10.47;8.33;;;16.80;99.90;;;;;;5016612;28;20481;-69
2021/07/23 01:32:16;;;;;;;11.20;8.60;;;16.70;99.90;;;;;;5016740;28;21066;-69
2021/07/23 01:34:42;;;;;;;9.40;8.40;;;16.70;99.90;;;;;;5016272;28;20249;-69
2021/07/23 01:37:08;;;;;;;8.80;7.90;;;16.70;99.90;;;;;;5016357;28;20168;-69
2021/07/23 01:39:35;;;;;;;9.70;7.53;;;16.70;99.90;;;;;;4998136;28;20200;-70
2021/07/23 01:42:00;;;;;;;11.20;8.83;;;16.70;99.90;;;;;;4982483;28;20180;-69
2021/07/23 01:44:26;;;;;;;9.83;8.27;;;16.70;99.90;;;;;;4977474;28;20789;-69
2021/07/23 01:46:51;;;;;;;10.63;9.27;;;16.60;99.90;;;;;;4977338;28;20177;-69
2021/07/23 01:49:17;;;;;;;10.53;8.27;;;16.60;99.90;;;;;;4977625;28;20180;-69
2021/07/23 01:51:43;;;;;;;10.40;8.40;;;16.60;99.90;;;;;;4977334;28;20197;-69
2021/07/23 01:54:09;;;;;;;9.10;7.90;;;16.70;99.90;;;;;;4982386;28;20382;-69
2021/07/23 01:56:34;;;;;;;12.10;8.70;;;16.70;99.90;;;;;;4981617;28;20171;-69
2021/07/23 01:59:00;;;;;;;9.90;8.90;;;16.70;99.90;;;;;;4977550;28;20401;-69
2021/07/23 02:01:25;;;;;;;12.63;8.63;;;16.70;99.90;;;;;;4977006;28;20169;-70
2021/07/23 02:03:51;;;;;;;12.50;7.80;;;16.60;99.90;;;;;;4976668;28;20196;-71
2021/07/23 02:06:16;;;;;;;10.53;9.43;;;16.60;99.90;;;;;;4959638;28;20197;-70
2021/07/23 02:08:42;;;;;;;11.70;8.83;;;16.70;99.90;;;;;;4957678;29;20230;-71
2021/07/23 02:11:07;;;;;;;9.50;8.50;;;16.60;99.90;;;;;;4957273;29;20198;-70
2021/07/23 02:13:33;;;;;;;10.00;8.23;;;16.60;99.90;;;;;;4957480;28;20272;-70
2021/07/23 02:16:04;;;;;;;10.60;9.13;;;16.50;99.90;;;;;;4957180;29;20201;-70
2021/07/23 02:18:29;;;;;;;12.83;8.60;;;16.50;99.90;;;;;;4957454;28;20260;-70
2021/07/23 02:20:55;;;;;;;10.23;8.20;;;16.40;99.90;;;;;;4957223;29;20977;-70
2021/07/23 02:23:20;;;;;;;9.02;7.70;;;16.30;99.90;;;;;;4957128;28;20523;-70
2021/07/23 02:25:46;;;;;;;11.17;8.27;;;16.20;99.90;;;;;;4957262;29;20667;-70
2021/07/23 02:28:11;;;;;;;12.53;9.07;;;16.20;99.90;;;;;;4956890;28;20177;-70
2021/07/23 02:30:39;;;;;;;10.43;8.10;;;16.10;99.90;;;;;;4957221;29;20232;-70
2021/07/23 02:33:04;;;;;;;13.80;9.70;;;16.10;99.90;;;;;;4971457;28;20248;-70
2021/07/23 02:35:30;;;;;;;11.13;9.07;;;16.10;99.90;;;;;;4976225;28;20492;-69
2021/07/23 02:37:55;;;;;;;10.33;9.00;;;16.10;99.90;;;;;;4976266;28;20177;-69
2021/07/23 02:40:21;;;;;;;10.23;9.10;;;16.10;99.90;;;;;;4976592;28;20180;-69
2021/07/23 02:42:46;;;;;;;10.17;8.20;;;16.10;99.90;;;;;;4975300;28;20196;-69
2021/07/23 02:45:12;;;;;;;10.20;8.20;;;16.10;99.90;;;;;;4976143;28;20173;-69
2021/07/23 02:47:37;;;;;;;10.30;8.20;;;16.20;99.90;;;;;;4976109;28;20177;-69
2021/07/23 02:50:03;;;;;;;10.63;7.77;;;16.20;99.90;;;;;;4976273;28;20586;-68
2021/07/23 02:52:29;;;;;;;8.90;8.00;;;16.30;99.90;;;;;;4976082;28;20197;-69
2021/07/23 02:54:54;;;;;;;12.13;9.07;;;16.30;99.90;;;;;;4975807;28;20448;-69
2021/07/23 02:57:20;;;;;;;8.17;7.37;;;16.40;99.90;;;;;;4976353;28;20177;-69
2021/07/23 02:59:46;;;;;;;9.30;8.33;;;16.30;99.90;;;;;;4976435;28;20169;-69
2021/07/23 03:02:11;;;;;;;8.80;7.80;;;16.20;99.90;;;;;;4977435;28;20197;-69
2021/07/23 03:04:37;;;;;;;8.33;7.53;;;16.30;99.90;;;;;;4975474;28;20185;-70
2021/07/23 03:07:02;;;;;;;8.03;7.23;;;16.40;99.90;;;;;;4976036;28;20208;-69
2021/07/23 03:09:28;;;;;;;9.40;8.00;;;16.40;99.90;;;;;;4975827;28;20173;-69
2021/07/23 03:11:53;;;;;;;8.97;7.53;;;16.40;99.90;;;;;;4975036;28;20658;-69
2021/07/23 03:14:19;;;;;;;10.93;8.60;;;16.30;99.90;;;;;;4975760;28;20172;-69
2021/07/23 03:16:44;;;;;;;11.17;8.80;;;16.30;99.90;;;;;;4975625;28;20214;-69
2021/07/23 03:19:10;;;;;;;8.20;7.40;;;16.30;99.90;;;;;;4976105;28;20701;-70
2021/07/23 03:21:35;;;;;;;8.73;7.83;;;16.30;99.90;;;;;;4977796;28;20204;-69
2021/07/23 03:24:01;;;;;;;9.60;8.57;;;16.30;99.90;;;;;;4977928;28;20220;-69
2021/07/23 03:26:26;;;;;;;8.70;7.27;;;16.30;99.90;;;;;;4978064;28;20204;-69
2021/07/23 03:28:52;;;;;;;9.10;7.70;;;16.30;99.90;;;;;;4978158;28;20574;-69
2021/07/23 03:31:17;;;;;;;9.20;8.20;;;16.30;99.90;;;;;;4975802;28;20598;-69
2021/07/23 03:33:43;;;;;;;9.10;8.27;;;16.20;99.90;;;;;;4975154;28;20216;-69
2021/07/23 03:36:08;;;;;;;12.67;8.47;;;16.10;99.90;;;;;;4976276;28;20710;-69
2021/07/23 03:38:34;;;;;;;9.03;8.00;;;16.10;99.90;;;;;;4978010;28;20228;-69
2021/07/23 03:40:59;;;;;;;11.93;7.90;;;16.00;99.90;;;;;;4977799;28;20235;-70
2021/07/23 03:43:25;;;;;;;8.00;7.20;;;16.00;99.90;;;;;;4974706;28;20639;-69
2021/07/23 03:45:51;;;;;;;10.20;7.77;;;15.90;99.90;;;;;;4975055;28;20197;-70
2021/07/23 03:48:16;;;;;;;8.83;7.63;;;15.80;99.90;;;;;;4975120;28;20195;-69
2021/07/23 03:50:42;;;;;;;10.40;8.80;;;15.80;99.90;;;;;;4975309;28;20169;-69
2021/07/23 03:53:07;;;;;;;9.77;8.30;;;15.80;99.90;;;;;;4975318;28;20193;-69
2021/07/23 03:55:33;;;;;;;9.40;8.40;;;15.90;99.90;;;;;;4975013;28;20271;-70
2021/07/23 03:57:58;;;;;;;8.73;7.83;;;15.90;99.90;;;;;;4975044;28;20561;-69
2021/07/23 04:00:24;;;;;;;11.23;9.10;;;16.00;99.90;;;;;;4975008;28;20713;-69
2021/07/23 04:02:49;;;;;;;9.67;8.10;;;16.10;99.90;;;;;;4974979;28;20418;-69
2021/07/23 04:05:15;;;;;;;9.50;8.30;;;16.10;99.90;;;;;;4974480;28;20189;-69
2021/07/23 04:07:41;;;;;;;13.80;9.53;;;16.20;99.90;;;;;;4975184;28;20196;-70
2021/07/23 04:10:07;;;;;;;9.00;7.77;;;16.30;99.90;;;;;;4974669;28;20197;-69
2021/07/23 04:12:33;;;;;;;10.37;8.87;;;16.30;99.90;;;;;;4974945;28;20464;-69
2021/07/23 04:14:59;;;;;;;8.87;7.90;;;16.30;99.90;;;;;;4974534;28;20534;-69
2021/07/23 04:17:24;;;;;;;9.00;7.97;;;16.30;99.90;;;;;;4975486;28;20684;-69
2021/07/23 04:19:50;;;;;;;11.60;8.77;;;16.30;99.90;;;;;;4974933;28;20514;-69
2021/07/23 04:22:16;;;;;;;8.23;7.43;;;16.20;99.90;;;;;;4973241;28;20614;-69
2021/07/23 04:24:43;;;;;;;11.00;9.30;;;16.20;99.90;;;;;;4974568;28;20255;-70
2021/07/23 04:27:08;;;;;;;9.47;8.47;;;16.30;99.90;;;;;;4975212;28;20416;-69
2021/07/23 04:29:34;;;;;;;14.63;9.40;;;16.20;99.90;;;;;;4974801;28;20427;-69
2021/07/23 04:31:59;;;;;;;9.93;8.33;;;16.30;99.90;;;;;;4974677;28;20168;-69
2021/07/23 04:34:25;;;;;;;11.73;8.70;;;16.30;99.90;;;;;;4972735;28;20291;-69
2021/07/23 04:36:50;;;;;;;10.17;7.73;;;16.40;99.90;;;;;;4974740;28;20227;-69
2021/07/23 04:39:16;;;;;;;12.20;9.17;;;16.40;99.90;;;;;;4975295;28;20169;-69
2021/07/23 04:41:41;;;;;;;9.87;8.87;;;16.50;99.90;;;;;;4974833;28;20192;-69
2021/07/23 04:44:07;;;;;;;9.47;8.43;;;16.40;99.90;;;;;;4975108;28;20193;-69
2021/07/23 04:46:32;;;;;;;10.53;8.60;;;16.30;99.90;;;;;;4973599;28;20201;-69
2021/07/23 04:48:58;;;;;;;12.23;9.70;;;16.30;99.90;;;;;;4974522;28;20430;-69
2021/07/23 04:51:23;;;;;;;11.17;9.37;;;16.40;99.90;;;;;;4974666;28;20188;-69
2021/07/23 04:53:50;;;;;;;12.00;9.63;;;16.40;99.90;;;;;;4974492;28;20587;-69
2021/07/23 04:56:15;;;;;;;10.90;9.50;;;16.40;99.90;;;;;;4978149;28;20550;-69
2021/07/23 04:58:41;;;;;;;10.57;8.57;;;16.50;99.90;;;;;;4977630;28;20428;-69
2021/07/23 05:01:06;;;;;;;11.13;10.03;;;16.40;99.90;;;;;;4978476;28;20208;-69
2021/07/23 05:03:38;;;;;;;12.53;10.07;;;16.40;99.90;;;;;;4977681;28;20662;-69
2021/07/23 05:06:05;;;;;;;10.63;9.23;;;16.40;99.90;;;;;;4977880;28;20212;-70
2021/07/23 05:08:31;;;;;;;13.03;10.00;;;16.50;99.90;;;;;;4979023;28;20518;-70
2021/07/23 05:10:57;;;;;;;11.60;9.40;;;16.60;99.90;;;;;;4979127;28;20410;-70
2021/07/23 05:13:23;;;;;;;10.50;9.40;;;16.60;99.90;;;;;;4978346;28;20201;-70
2021/07/23 05:15:49;;;;;;;12.80;9.50;;;16.70;99.90;;;;;;4979177;28;20231;-70
2021/07/23 05:18:15;;;;;;;22.83;9.70;;;16.70;99.90;;;;;;4977016;28;20254;-71
2021/07/23 05:20:43;;;;;;;11.60;9.70;;;16.80;99.90;;;;;;4975664;28;20177;-71
2021/07/23 05:23:08;;;;;;;13.40;9.20;;;16.80;99.90;;;;;;4976841;28;20486;-70
2021/07/23 05:25:35;;;;;;;8.90;8.00;;;16.80;99.90;;;;;;4963362;28;20937;-71
2021/07/23 05:28:01;;;;;;;14.00;11.70;;;16.90;99.90;;;;;;4975772;28;20432;-70
2021/07/23 05:30:26;;;;;;;13.68;11.50;;;17.00;99.90;;;;;;4974253;28;20422;-69
2021/07/23 05:32:52;;;;;;;12.20;9.60;;;17.00;99.90;;;;;;4975146;28;20290;-71
2021/07/23 05:35:18;;;;;;;11.73;10.13;;;17.00;99.90;;;;;;4979223;28;20591;-70
2021/07/23 05:37:45;;;;;;;11.90;10.60;;;17.10;99.90;;;;;;4976466;28;20422;-70
2021/07/23 05:40:11;;;;;;;12.77;10.27;;;17.10;99.90;;;;;;4978296;28;20177;-70
2021/07/23 05:42:37;;;;;;;10.50;9.30;;;17.00;99.90;;;;;;4977929;28;20456;-70
2021/07/23 05:45:03;;;;;;;13.20;8.77;;;17.10;99.90;;;;;;4979196;28;20785;-71
2021/07/23 05:47:29;;;;;;;8.83;7.93;;;17.10;99.90;;;;;;4979084;28;20204;-71
2021/07/23 05:49:55;;;;;;;11.87;8.20;;;17.30;99.90;;;;;;4958982;28;20964;-70
2021/07/23 05:52:20;;;;;;;9.83;8.53;;;17.50;99.90;;;;;;4976103;28;20228;-70
2021/07/23 05:54:46;;;;;;;11.33;8.53;;;17.50;99.90;;;;;;4977151;28;20196;-70
2021/07/23 05:57:11;;;;;;;12.70;8.37;;;17.60;99.90;;;;;;4977601;28;20590;-70
2021/07/23 05:59:37;;;;;;;9.17;8.13;;;17.80;99.90;;;;;;4977472;28;20634;-70
2021/07/23 06:02:02;;;;;;;10.37;9.13;;;17.80;99.90;;;;;;4976214;28;20227;-71
2021/07/23 06:04:28;;;;;;;10.73;8.43;;;17.90;99.90;;;;;;4976519;28;20201;-70
2021/07/23 06:06:53;;;;;;;10.50;9.40;;;17.90;99.90;;;;;;4977051;28;20165;-70
2021/07/23 06:09:22;;;;;;;10.10;8.80;;;18.00;99.90;;;;;;4977397;28;20228;-71
2021/07/23 06:11:47;;;;;;;15.63;9.10;;;18.10;99.90;;;;;;4977446;28;20169;-70
2021/07/23 06:14:13;;;;;;;8.47;7.60;;;18.20;99.90;;;;;;4977578;28;20499;-71
2021/07/23 06:16:42;;;;;;;11.63;9.70;;;18.20;99.90;;;;;;4977839;28;20208;-70
2021/07/23 06:19:07;;;;;;;11.03;8.80;;;18.30;99.90;;;;;;4978257;28;20177;-70
2021/07/23 06:21:33;;;;;;;11.55;8.63;;;18.40;99.90;;;;;;4977399;28;20421;-70
2021/07/23 06:23:58;;;;;;;15.03;11.20;;;18.50;99.90;;;;;;4977177;28;20203;-70
2021/07/23 06:26:24;;;;;;;10.47;9.37;;;18.50;99.90;;;;;;4976894;28;20323;-70
2021/07/23 06:28:49;;;;;;;10.90;7.87;;;18.50;99.90;;;;;;4976645;28;20705;-70
2021/07/23 06:31:15;;;;;;;11.23;8.27;;;18.60;99.90;;;;;;4977917;28;20177;-70
2021/07/23 06:33:41;;;;;;;9.17;8.20;;;18.70;99.90;;;;;;4976886;28;20585;-70
2021/07/23 06:36:07;;;;;;;10.03;9.00;;;18.70;99.90;;;;;;4977399;28;20284;-70
2021/07/23 06:38:32;;;;;;;8.60;7.70;;;18.80;99.90;;;;;;4977278;28;20416;-70
2021/07/23 06:40:59;;;;;;;11.30;9.30;;;18.90;99.90;;;;;;4978164;28;20407;-70
2021/07/23 06:43:25;;;;;;;9.00;8.00;;;18.80;99.90;;;;;;4977692;28;20196;-70
2021/07/23 06:45:55;;;;;;;8.20;7.40;;;18.90;99.90;;;;;;4976480;28;20451;-71
2021/07/23 06:48:21;;;;;;;9.43;7.20;;;19.00;99.90;;;;;;4978006;28;20495;-71
2021/07/23 06:50:46;;;;;;;12.50;8.70;;;19.10;99.90;;;;;;4976979;28;20440;-69
2021/07/23 06:53:12;;;;;;;8.40;7.60;;;19.10;99.90;;;;;;4976721;28;20196;-69
2021/07/23 06:55:37;;;;;;;8.60;7.53;;;19.20;99.90;;;;;;4976695;28;20203;-69
2021/07/23 06:58:03;;;;;;;8.37;7.50;;;19.20;99.90;;;;;;4979282;28;20171;-70
2021/07/23 07:00:28;;;;;;;9.23;8.30;;;19.30;99.90;;;;;;4981234;28;20254;-70
2021/07/23 07:02:54;;;;;;;8.33;7.53;;;19.20;99.90;;;;;;4984347;28;20223;-69
2021/07/23 07:05:21;;;;;;;7.50;6.70;;;19.20;99.90;;;;;;4982101;28;20204;-70
2021/07/23 07:07:47;;;;;;;11.30;7.40;;;19.30;99.90;;;;;;4986535;28;20173;-69
2021/07/23 07:10:13;;;;;;;10.03;7.10;;;19.30;99.90;;;;;;4986913;28;20777;-70
2021/07/23 07:12:38;;;;;;;9.13;8.10;;;19.40;99.90;;;;;;4987611;28;20208;-70
2021/07/23 07:15:04;;;;;;;7.93;7.00;;;19.50;99.90;;;;;;4991299;28;20217;-70
2021/07/23 07:17:30;;;;;;;10.13;7.67;;;19.70;99.90;;;;;;4991182;28;20188;-70
2021/07/23 07:19:59;;;;;;;9.60;7.80;;;19.80;99.90;;;;;;4991453;28;20408;-69
2021/07/23 07:22:25;;;;;;;8.03;6.77;;;19.90;99.90;;;;;;4992791;28;20475;-69
2021/07/23 07:24:51;;;;;;;7.80;7.00;;;19.90;99.90;;;;;;4992381;28;20462;-70
2021/07/23 07:27:17;;;;;;;8.40;6.50;;;20.00;99.90;;;;;;4993097;28;20416;-69
2021/07/23 07:29:42;;;;;;;7.97;5.97;;;20.10;99.90;;;;;;4993500;28;20192;-70
2021/07/23 07:32:08;;;;;;;6.93;5.90;;;20.20;99.90;;;;;;4991625;28;20204;-70
2021/07/23 07:34:35;;;;;;;7.67;6.20;;;20.30;99.90;;;;;;4990349;28;20178;-70
2021/07/23 07:37:01;;;;;;;12.47;6.87;;;20.40;99.90;;;;;;4973123;28;20500;-70
2021/07/23 07:39:28;;;;;;;7.00;6.30;;;20.50;99.90;;;;;;4990910;28;20419;-70
2021/07/23 07:41:53;;;;;;;8.60;6.65;;;20.60;99.90;;;;;;4992571;28;20406;-70
2021/07/23 07:44:19;;;;;;;7.70;6.70;;;20.70;99.90;;;;;;4993274;28;20192;-70
2021/07/23 07:46:44;;;;;;;9.63;6.97;;;20.80;99.90;;;;;;4991320;28;20180;-70
2021/07/23 07:49:10;;;;;;;7.03;6.33;;;20.90;99.90;;;;;;4992639;28;21316;-70
2021/07/23 07:51:35;;;;;;;6.80;6.10;;;20.90;99.90;;;;;;4991699;28;20450;-70
2021/07/23 07:54:01;;;;;;;8.80;5.80;;;20.90;99.90;;;;;;4993196;28;20303;-70
2021/07/23 07:56:26;;;;;;;6.53;5.83;;;21.00;99.90;;;;;;4992328;28;20236;-70
2021/07/23 07:58:52;;;;;;;15.83;6.03;;;21.20;99.90;;;;;;4988226;28;20169;-70
2021/07/23 08:01:17;;;;;;;8.20;6.50;;;21.20;99.90;;;;;;4981018;28;20634;-71
2021/07/23 08:03:43;;;;;;;6.27;5.67;;;21.20;99.90;;;;;;4980408;28;20192;-70
2021/07/23 08:06:21;;;;;;;7.37;6.70;;;21.30;99.90;;;;;;4981003;28;20631;-70
2021/07/23 08:08:48;;;;;;;7.50;6.23;;;21.40;99.90;;;;;;4976569;28;20204;-70
2021/07/23 08:11:13;;;;;;;14.13;5.90;;;21.50;99.90;;;;;;4976203;28;20440;-70
2021/07/23 08:13:39;;;;;;;9.30;7.10;;;21.50;99.80;;;;;;4974455;28;20808;-70
2021/07/23 08:16:05;;;;;;;7.90;6.63;;;21.60;99.80;;;;;;4977245;28;20192;-70
2021/07/23 08:18:30;;;;;;;13.03;6.60;;;21.50;99.70;;;;;;4975738;28;20643;-69
2021/07/23 08:20:56;;;;;;;6.63;6.03;;;21.30;99.50;;;;;;4975579;28;20177;-70
2021/07/23 08:23:22;;;;;;;8.70;6.97;;;21.30;99.60;;;;;;4975291;28;20619;-70
2021/07/23 08:25:48;;;;;;;7.83;7.10;;;21.30;99.70;;;;;;4975641;28;20169;-70
2021/07/23 08:28:15;;;;;;;7.90;7.10;;;21.40;99.50;;;;;;4974967;28;20638;-70
2021/07/23 08:30:41;;;;;;;10.90;8.27;;;21.30;99.20;;;;;;4960477;28;20449;-70
2021/07/23 08:33:07;;;;;;;14.03;7.57;;;21.10;99.40;;;;;;4978984;28;20439;-70
2021/07/23 08:35:32;;;;;;;7.73;6.50;;;20.90;99.90;;;;;;4979390;28;20189;-70
2021/07/23 08:37:58;;;;;;;8.83;7.47;;;20.80;99.90;;;;;;4979918;28;20195;-70
2021/07/23 08:40:24;;;;;;;9.80;8.90;;;20.80;99.90;;;;;;4979169;28;20415;-70
2021/07/23 08:42:49;;;;;;;8.03;6.63;;;20.70;99.90;;;;;;4978993;28;20240;-70
2021/07/23 08:45:15;;;;;;;8.63;7.70;;;20.60;99.90;;;;;;4979533;28;20177;-70
2021/07/23 08:47:41;;;;;;;10.03;7.03;;;20.90;99.90;;;;;;4979054;28;20508;-70
2021/07/23 08:50:07;;;;;;;8.20;7.40;;;20.90;99.90;;;;;;4978747;28;20197;-71
2021/07/23 08:52:46;;;;;;;9.87;8.10;;;21.10;99.90;;;;;;4979111;28;20189;-70
2021/07/23 08:55:14;;;;;;;8.57;7.33;;;21.10;99.90;;;;;;4978814;28;20455;-70
2021/07/23 08:57:41;;;;;;;9.07;7.37;;;21.00;99.90;;;;;;4978318;28;20458;-70
2021/07/23 09:00:09;;;;;;;7.07;6.00;;;21.00;99.90;;;;;;4978464;28;20428;-70
2021/07/23 09:02:54;;;;;;;8.60;5.50;;;21.20;99.90;;;;;;4978846;28;20508;-70
2021/07/23 09:05:45;;;;;;;11.13;7.10;;;21.50;99.70;;;;;;4978235;28;20459;-71
2021/07/23 09:08:18;;;;;;;8.50;5.90;;;21.80;98.60;;;;;;4978007;28;20423;-71
2021/07/23 09:10:45;;;;;;;9.23;6.30;;;22.00;98.10;;;;;;4978090;28;20520;-71
2021/07/23 09:13:20;;;;;;;13.00;7.00;;;22.20;97.70;;;;;;4977936;28;20436;-71
2021/07/23 09:15:46;;;;;;;10.40;6.67;;;22.40;97.30;;;;;;4977856;28;20446;-71
2021/07/23 09:18:31;;;;;;;9.40;6.70;;;22.50;97.20;;;;;;4977622;28;20918;-69
2021/07/23 09:20:58;;;;;;;9.03;6.10;;;22.60;97.30;;;;;;4977887;28;20169;-71
2021/07/23 09:23:34;;;;;;;10.13;7.03;;;22.80;97.00;;;;;;4977629;28;20790;-70
2021/07/23 09:26:13;;;;;;;8.90;6.33;;;22.80;96.60;;;;;;4977504;28;20483;-69
2021/07/23 09:28:41;;;;;;;8.17;7.20;;;22.90;96.70;;;;;;4977208;28;20867;-69
2021/07/23 09:31:08;;;;;;;8.60;7.70;;;22.80;96.70;;;;;;4978144;28;20431;-69
2021/07/23 09:33:41;;;;;;;9.80;7.90;;;22.80;96.90;;;;;;4977604;28;20451;-70
2021/07/23 09:36:07;;;;;;;8.57;6.70;;;22.90;96.80;;;;;;4977200;28;20480;-70
2021/07/23 09:38:37;;;;;;;9.03;7.53;;;23.00;96.80;;;;;;4977306;28;20413;-70
2021/07/23 09:41:03;;;;;;;8.50;7.70;;;23.00;96.30;;;;;;4977669;28;20408;-70
2021/07/23 09:43:40;;;;;;;11.93;7.00;;;22.90;96.40;;;;;;4978633;28;20515;-70
2021/07/23 09:46:18;;;;;;;7.70;6.27;;;23.00;96.80;;;;;;4978479;28;20419;-70
2021/07/23 09:48:44;;;;;;;8.67;7.10;;;23.20;96.70;;;;;;4978992;28;20463;-70
2021/07/23 09:51:10;;;;;;;7.37;6.67;;;23.20;96.50;;;;;;4979513;28;20463;-70
2021/07/23 09:53:35;;;;;;;9.33;8.43;;;23.40;96.50;;;;;;4979511;28;20790;-70
2021/07/23 09:56:08;;;;;;;13.60;9.37;;;23.30;96.40;;;;;;4978937;28;20276;-70
2021/07/23 09:58:46;;;;;;;10.13;9.03;;;23.30;96.30;;;;;;4979737;28;20506;-70
2021/07/23 10:01:18;;;;;;;9.93;8.90;;;23.10;96.60;;;;;;4976783;28;20412;-71
2021/07/23 10:03:45;;;;;;;8.60;7.80;;;23.00;96.70;;;;;;4976244;28;20432;-72
2021/07/23 10:06:16;;;;;;;9.23;6.90;;;23.20;96.90;;;;;;4977634;28;20571;-71
2021/07/23 10:08:49;;;;;;;12.13;8.03;;;23.30;96.80;;;;;;4975750;28;20814;-71
2021/07/23 10:11:20;;;;;;;8.10;7.00;;;23.40;96.40;;;;;;4975804;28;20451;-71
2021/07/23 10:13:48;;;;;;;8.20;7.40;;;23.40;96.30;;;;;;4975200;28;20432;-71
2021/07/23 10:16:15;;;;;;;7.40;6.67;;;23.50;96.20;;;;;;4976667;28;20444;-71
2021/07/23 10:18:42;;;;;;;8.50;7.20;;;23.60;96.00;;;;;;4975700;28;20933;-71
2021/07/23 10:21:10;;;;;;;9.93;8.23;;;23.70;95.80;;;;;;4976746;28;20417;-71
2021/07/23 10:23:38;;;;;;;9.10;7.77;;;23.80;95.40;;;;;;4975097;28;20592;-71
2021/07/23 10:26:05;;;;;;;13.60;8.20;;;23.70;95.80;;;;;;4975196;28;20455;-71
2021/07/23 10:28:41;;;;;;;8.33;7.47;;;23.80;95.80;;;;;;4976116;28;20451;-71
2021/07/23 10:31:31;;;;;;;11.05;8.60;;;23.90;95.40;;;;;;4976336;28;20414;-70
2021/07/23 10:34:10;;;;;;;7.60;6.90;;;23.90;94.60;;;;;;4964756;28;20682;-71
2021/07/23 10:36:37;;;;;;;10.83;8.80;;;23.90;95.10;;;;;;4975918;28;20570;-71
2021/07/23 10:39:24;;;;;;;9.50;7.93;;;23.80;95.00;;;;;;4975105;28;20505;-71
2021/07/23 10:41:49;;;;;;;7.30;6.60;;;23.80;95.10;;;;;;4959354;28;20423;-71
2021/07/23 10:44:27;;;;;;;8.47;6.73;;;23.70;94.90;;;;;;4958673;28;20437;-72
2021/07/23 10:46:54;;;;;;;7.90;7.10;;;23.80;95.20;;;;;;4976320;28;20589;-72
2021/07/23 10:49:31;;;;;;;7.33;6.60;;;23.80;94.90;;;;;;4957219;28;20507;-71
2021/07/23 10:52:04;;;;;;;8.73;7.23;;;23.90;95.10;;;;;;4976013;28;20404;-71
2021/07/23 10:54:30;;;;;;;7.33;6.63;;;24.00;94.80;;;;;;4975458;28;20900;-71
2021/07/23 10:56:57;;;;;;;8.33;7.53;;;24.10;94.40;;;;;;4976194;28;20428;-71
2021/07/23 10:59:39;;;;;;;11.07;8.13;;;24.20;94.40;;;;;;4979372;28;20459;-71
2021/07/23 11:02:10;;;;;;;9.10;7.10;;;24.20;94.00;;;;;;4994096;28;20419;-71
2021/07/23 11:04:38;;;;;;;9.17;7.77;;;24.20;94.00;;;;;;4995637;28;20426;-71
2021/07/23 11:07:05;;;;;;;7.90;7.20;;;24.00;94.80;;;;;;4981683;28;20423;-70
2021/07/23 11:09:34;;;;;;;7.87;7.17;;;24.00;95.10;;;;;;4976828;28;20417;-71
2021/07/23 11:12:20;;;;;;;8.20;7.40;;;24.00;95.50;;;;;;4975163;28;20939;-70
2021/07/23 11:15:00;;;;;;;9.73;7.87;;;24.10;95.20;;;;;;4975670;28;20188;-70
2021/07/23 11:17:26;;;;;;;10.37;8.80;;;23.90;93.80;;;;;;4975833;28;20408;-71
2021/07/23 11:19:56;;;;;;;11.63;9.57;;;23.80;94.70;;;;;;4975852;28;20412;-71
2021/07/23 11:22:23;;;;;;;9.53;8.57;;;23.60;95.40;;;;;;4976257;28;20467;-71
2021/07/23 11:24:49;;;;;;;8.50;7.70;;;23.60;95.70;;;;;;4958687;28;20416;-71
2021/07/23 11:27:29;;;;;;;7.20;6.50;;;23.50;95.70;;;;;;4975697;28;20409;-71
2021/07/23 11:29:56;;;;;;;7.60;6.90;;;23.60;95.70;;;;;;4976676;28;20407;-70
2021/07/23 11:32:22;;;;;;;10.90;7.93;;;23.60;95.30;;;;;;4975956;28;20499;-70
2021/07/23 11:35:01;;;;;;;8.00;7.27;;;23.50;94.30;;;;;;4975515;28;20495;-71
2021/07/23 11:37:27;;;;;;;8.60;7.53;;;23.50;94.40;;;;;;4976234;28;20460;-72
2021/07/23 11:39:57;;;;;;;9.70;7.83;;;23.70;94.70;;;;;;4982551;28;20514;-75
2021/07/23 11:42:25;;;;;;;9.30;7.93;;;23.80;94.90;;;;;;4971512;28;20240;-71
2021/07/23 11:44:58;;;;;;;8.50;7.60;;;23.90;94.60;;;;;;4972108;28;20425;-71
2021/07/23 11:47:38;;;;;;;8.67;7.80;;;24.00;94.50;;;;;;4972540;28;20775;-72
2021/07/23 11:50:08;;;;;;;9.67;8.77;;;24.00;94.90;;;;;;4973427;28;20939;-72
2021/07/23 11:52:34;;;;;;;10.30;9.20;;;23.80;95.10;;;;;;4970496;28;20476;-72
2021/07/23 11:55:02;;;;;;;9.03;8.10;;;23.70;95.40;;;;;;4971760;28;20240;-71
2021/07/23 11:57:45;;;;;;;11.03;8.80;;;23.70;95.40;;;;;;4972351;28;20428;-71
2021/07/23 12:00:13;;;;;;;9.20;8.30;;;23.60;95.10;;;;;;4972987;28;20419;-72
2021/07/23 12:02:38;;;;;;;10.20;9.10;;;23.50;95.50;;;;;;4972505;28;20443;-72
2021/07/23 12:05:09;;;;;;;9.93;8.50;;;23.50;95.20;;;;;;4972720;28;20435;-71
2021/07/23 12:07:36;;;;;;;8.83;7.93;;;23.60;95.40;;;;;;4972978;28;20252;-71
2021/07/23 12:10:07;;;;;;;9.93;8.27;;;23.70;95.20;;;;;;4973011;28;20430;-70
2021/07/23 12:12:34;;;;;;;9.40;8.37;;;23.60;95.10;;;;;;4971840;28;20582;-71
2021/07/23 12:15:05;;;;;;;9.07;8.17;;;23.60;95.50;;;;;;4973071;28;20497;-72
2021/07/23 12:17:32;;;;;;;9.30;8.40;;;23.60;95.40;;;;;;4973336;28;20421;-72
2021/07/23 12:19:57;;;;;;;9.67;8.30;;;23.60;95.30;;;;;;4975030;28;20515;-71
2021/07/23 12:22:23;;;;;;;10.40;8.00;;;23.60;95.50;;;;;;4975177;28;20490;-70
2021/07/23 12:24:49;;;;;;;10.27;9.27;;;23.60;95.20;;;;;;4974162;28;20868;-70
2021/07/23 12:27:19;;;;;;;10.20;9.27;;;23.60;95.40;;;;;;4974969;28;20169;-70
2021/07/23 12:29:45;;;;;;;9.47;8.53;;;23.50;95.10;;;;;;4974284;28;20232;-71
2021/07/23 12:32:14;;;;;;;12.20;8.93;;;23.50;95.40;;;;;;4974822;28;20431;-71
2021/07/23 12:34:40;;;;;;;10.27;9.17;;;23.50;95.60;;;;;;4973451;28;20569;-70
2021/07/23 12:37:19;;;;;;;8.80;8.00;;;23.50;95.40;;;;;;4976353;28;20427;-71
2021/07/23 12:39:52;;;;;;;9.80;8.80;;;23.60;95.50;;;;;;4976895;28;20440;-71
2021/07/23 12:42:21;;;;;;;14.30;8.20;;;23.60;95.40;;;;;;4959564;28;20503;-70
2021/07/23 12:44:47;;;;;;;8.73;7.93;;;23.60;95.60;;;;;;4974804;28;20415;-71